Southern Illinois Airport
KMDH : now visible

Aeroporto :











RITROVATECI SU...

 
LOGIN :

Iscrizione | Disclaimer

   EN    FR    IT 

 









Sommario :    VFR   VFR Marginale   IFR   IFR Intensivo   IFR Molto Intensivo
Visibilità : 
Base nubi : 
>= 8 km
>= 3000ft
5 / 8 km
1000 / 3000 ft
1500m / 5 km
500 / 1000 ft
800 / 1500m
200 / 500 ft
< 800m
< 200 ft
Simboli :   Temporali  Nebbia  Neve Forte  Precipitazioni Forti  Vento > 20 kt






- Altitudine del aeroporto : 411 ft
- Codice IATA : MDH


KMDH - Southern Illinois

ULTIMO METAR :
  • 161304Z 09014G25KT 10SM OVC032 24/19 A2994 RMK AO2 LTG DSNT NW-NE T02440194

METARs OBSOLETI :
  • 161209Z 09013G18KT 9SM BKN019 27/24 A2991 RMK AO2 LTG DSNT NW-NE T02670244
  • 161152Z 09010KT 8SM SCT015 27/24 A2990 RMK AO2 LTG DSNT N AND NE SLP120 T02670244 10283 20261 53023
  • 161052Z AUTO 18005KT 10SM CLR 27/24 A2985 RMK AO2 LTG DSNT N AND NE PRESRR SLP104 T02670239
  • 160952Z AUTO 20006KT 10SM CLR 27/24 A2983 RMK AO2 LTG DSNT N SLP098 T02720239
  • 160852Z AUTO 20009KT 10SM CLR 27/24 A2983 RMK AO2 SLP097 T02720244 58005

TAF N/A
FIR KZKC / America del Nord



MetMap, La meteo Aeronautica in un colpo d'occhio ! - Copyright ORBIFLY Dicembre 2007 - Disclaimer

ORBIFLY MET'MAP TEAM :

Programmazione e sviluppo : Alexandra Zaïnal
Concezione : Baudouin d'Aumeries
Supporto tecnico e logistico : Manuel Goepfert
Aiuto : Marc-Olivier Méhu
Aiuto per la traduzione : Arnaldo La Scala




FONTI E CREDITI :

   NOAA       Earth
Advisory